Messwerte Amapa

Temperatur

Temperatur
°C
1582498800 20.00 20.00 21
1582502400 21.00 21.00 21
1582506000 22.00 22.00 21
1582509600 23.00 23.00 20
1582513200 0.00 0.00 20
1582516800 1.00 1.00 20
1582520400 2.00 2.00 20
1582524000 3.00 3.00 20
1582527600 4.00 4.00 20
1582531200 5.00 5.00 20
1582534800 6.00 6.00 19
1582538400 7.00 7.00
1582542000 8.00 8.00 21
1582545600 9.00 9.00 22
1582549200 10.00 10.00 21
1582552800 11.00 11.00
1582556400 12.00 12.00 20
1582560000 13.00 13.00 20
1582563600 14.00 14.00 20
1582567200 15.00 15.00 20
1582570800 16.00 16.00 20
1582574400 17.00 17.00 21
1582578000 18.00 18.00 21
1582581600 19.00 19.00 20

Aktuellste Messwerte

Wettercharakter
Wetter: wechselnd bewölkt
Temperatur
20 °C
Feuchtigkeit
94 %
Wind
10 km/hWindrichtung: Nordost
Luftdruck
1017 hPa
Messzeit: 24. Februar 2020, 19.00Datenquelle: METAR

Weitere Messstationen in der Nähe

Messstation Temperatur Entfernung
Macapá 26 °C 228 km
Cayenne 26 °C 350 km
Belém 26 °C 465 km

Wind

Windrichtung Böen Mittelwind
° km/h km/h
1582498800 20.00 19.00 - 20.00 0
1582502400 21.00 20.00 - 21.00 360° 5
1582506000 22.00 21.00 - 22.00 80° 10
1582509600 23.00 22.00 - 23.00 80° 10
1582513200 0.00 23.00 - 0.00 70° 10
1582516800 1.00 0.00 - 1.00 70° 5
1582520400 2.00 1.00 - 2.00 70° 5
1582524000 3.00 2.00 - 3.00 140° 5
1582527600 4.00 3.00 - 4.00 120° 5
1582531200 5.00 4.00 - 5.00 310° 5
1582534800 6.00 5.00 - 6.00 30° 5
1582538400 7.00 6.00 - 7.00
1582542000 8.00 7.00 - 8.00 70° 5
1582545600 9.00 8.00 - 9.00 50° 5
1582549200 10.00 9.00 - 10.00 50° 5
1582552800 11.00 10.00 - 11.00
1582556400 12.00 11.00 - 12.00 320° 10
1582560000 13.00 12.00 - 13.00 280° 5
1582563600 14.00 13.00 - 14.00 240° 10
1582567200 15.00 14.00 - 15.00 220° 10
1582570800 16.00 15.00 - 16.00 5
1582574400 17.00 16.00 - 17.00 70° 5
1582578000 18.00 17.00 - 18.00 50° 5
1582581600 19.00 18.00 - 19.00 50° 10

Ihre Wetterstation

Fehlt Ihre Wetterstation auf unserem Portal?

Schreiben Sie an network@meteonews.ch